Main page
METAR-TAF:

METAR-TAF

Airports :

Baia Mare, Romania

Baia Mare Airport

latitude: 47-40N, longitude: 023-35E, elevation: 218 m

Current weather observation

The report was made 38 minutes ago, at 23:30 UTC
Wind 4 kt from the East/Northeast
Temperature 3°C
Humidity 70%
Pressure 1019 hPa
Visibility 10 km or more

METAR: LRBM 262330Z AUTO 06004KT 9999 FEW017/// SCT220/// 03/M02 Q1019

Time: 02:08 (00:08 UTC)

Forecast

The report was made 10 hours and 8 minutes ago, at 14:00 UTC
Forecast valid from 25 at 15 UTC to 25 at 24 UTC
Wind 12 kt from the West/Northwest
Visibility 10 km or more
Scattered clouds at a height of 4000 ft
Probability 30% :
Temporary
from 25 at 15 UTC to 25 at 18 UTC
Few clouds at a height of 3000 ft, Cumulonimbus.
Scattered clouds at a height of 4000 ft
Becoming
from 25 at 16 UTC to 25 at 18 UTC
Wind 4 kt from variable directions

TAF: LRBM 251400Z 2515/2524 29012KT 9999 SCT040 PROB30 TEMPO 2515/2518 FEW030CB SCT040 BECMG 2516/2518 VRB04KT

Weather observations and forecasts of more than 4000 airports (METAR and TAF reports).

The available stations are represented by yellow and red dots on the map.

Hover mouse over dot to see the name of the station.

Then click to see weather observations and forecasts.

To change the map : click on the green buttons with a black cross to zoom in, on the green button with a dash to zoom out, or on the green arrows for adjacent maps.


METAR-TAF: